Date,TemperatureHighF,TemperatureAvgF,TemperatureLowF,DewpointHighF,DewpointAvgF,DewpointLowF,HumidityHigh,HumidityAvg,HumidityLow,PressureMaxIn,PressureMinIn,WindSpeedMaxMPH,WindSpeedAvgMPH,GustSpeedMaxMPH,PrecipitationSumIn
2013-1-1,35.2,28.3,14.9,26.4,17.3,3.4,76,63,48,29.97,29.69,27,4,0,0.00
2013-1-2,28.2,16.7,6.8,18.0,7.6,-1.8,84,66,54,30.16,29.87,26,3,0,0.00
2013-1-3,26.1,12.4,0.5,10.4,0.4,-8.1,78,59,32,30.20,29.97,12,2,0,0.00
2013-1-4,36.9,27.4,15.3,24.6,18.5,7.7,84,68,53,30.01,29.77,25,5,0,0.00
2013-1-5,41.2,31.8,20.8,27.3,21.2,15.1,88,65,43,30.31,29.80,17,3,0,0.00
2013-1-6,42.1,30.8,22.1,32.7,23.7,15.4,93,74,57,30.26,29.90,18,3,0,0.00
2013-1-7,40.8,30.9,21.7,29.8,21.1,14.5,94,67,44,30.45,30.10,15,2,0,0.00
2013-1-8,43.3,32.0,21.4,30.0,23.5,14.9,92,71,52,30.42,30.23,21,4,0,0.00
2013-1-9,41.9,31.6,23.0,30.4,24.7,18.5,91,75,58,30.41,30.11,17,2,0,0.00
2013-1-10,46.4,38.5,31.5,30.7,25.4,21.4,76,59,47,30.59,30.26,18,3,0,0.00
2013-1-11,41.5,34.2,25.9,36.3,26.8,19.9,99,74,51,30.56,30.20,7,2,0,0.00
2013-1-12,45.9,39.1,33.6,41.2,37.2,32.9,99,93,82,30.27,30.10,6,2,0,0.00
2013-1-13,48.4,43.9,38.5,48.0,42.8,35.1,99,96,82,30.21,29.98,10,3,0,0.00
2013-1-14,61.0,47.9,38.1,52.7,42.6,27.5,99,83,51,30.30,29.86,13,3,0,0.00
2013-1-15,43.0,36.2,30.6,30.2,25.7,22.5,82,65,52,30.36,30.21,10,2,0,0.00
2013-1-16,35.6,31.3,27.7,32.7,29.1,22.5,99,91,65,30.30,29.80,6,2,0,0.00
2013-1-17,39.6,31.9,25.5,34.0,25.7,10.8,99,78,52,30.14,29.81,18,2,0,0.00
2013-1-18,27.5,18.9,12.4,14.7,2.6,-4.9,63,48,34,30.48,30.04,22,4,0,0.00
2013-1-19,41.0,29.8,18.7,31.6,18.8,5.7,77,63,52,30.40,29.86,28,9,0,0.00
2013-1-20,50.0,37.3,24.6,33.6,25.3,9.9,79,62,40,29.96,29.52,32,8,0,0.00
2013-1-21,26.4,22.3,17.6,21.6,10.8,2.1,90,61,43,30.13,29.79,22,4,0,0.00
2013-1-22,24.4,16.8,9.0,19.8,7.3,-3.8,99,67,40,30.13,29.74,21,3,0,0.00
2013-1-23,14.5,7.3,2.5,-0.9,-7.1,-13.0,72,51,32,30.22,30.05,18,3,0,0.00
2013-1-24,20.5,7.3,-2.0,-3.1,-8.5,-13.5,72,48,31,30.28,30.04,21,3,0,0.00
2013-1-25,23.5,13.6,4.6,7.3,-6.1,-11.9,66,41,26,30.37,30.05,19,3,0,0.00
2013-1-26,25.0,14.6,8.1,11.5,2.2,-7.4,96,60,32,30.29,29.98,19,3,0,0.00
2013-1-27,31.5,18.1,9.1,7.5,1.6,-3.3,74,49,31,30.49,30.22,19,2,0,0.00
2013-1-28,30.7,23.9,16.0,25.5,13.6,0.7,99,66,40,30.47,30.00,11,2,0,0.00
2013-1-29,36.7,29.2,22.6,33.6,27.6,21.0,99,93,77,30.24,30.00,6,1,0,0.00
2013-1-30,56.7,45.2,32.4,56.3,44.5,31.1,99,97,87,30.17,29.44,21,4,0,0.00
2013-1-31,57.7,43.6,26.2,57.4,36.6,14.5,99,77,44,29.64,28.99,35,9,0,0.00